sensor_id;sensor_type;location;lat;lon;timestamp;pressure;altitude;pressure_sealevel;temperature;humidity
15529;BME280;7866;52.280;9.500;2022-11-20T00:00:08;100039.25;;;-2.35;90.79
15529;BME280;7866;52.280;9.500;2022-11-20T00:05:09;100033.25;;;-2.37;90.55
15529;BME280;7866;52.280;9.500;2022-11-20T00:10:11;100033.81;;;-2.46;90.82
15529;BME280;7866;52.280;9.500;2022-11-20T00:15:15;100038.97;;;-2.44;91.29
15529;BME280;7866;52.280;9.500;2022-11-20T00:20:16;100026.03;;;-2.62;91.12
15529;BME280;7866;52.280;9.500;2022-11-20T00:25:18;100030.06;;;-2.56;91.00
15529;BME280;7866;52.280;9.500;2022-11-20T00:30:21;100020.53;;;-2.57;91.09
15529;BME280;7866;52.280;9.500;2022-11-20T00:35:23;100022.41;;;-2.59;91.28
15529;BME280;7866;52.280;9.500;2022-11-20T00:40:25;100025.66;;;-2.56;90.99
15529;BME280;7866;52.280;9.500;2022-11-20T00:45:28;100012.66;;;-2.57;90.96
15529;BME280;7866;52.280;9.500;2022-11-20T00:50:29;100019.03;;;-2.61;90.85
15529;BME280;7866;52.280;9.500;2022-11-20T00:55:31;100024.53;;;-2.66;91.53
15529;BME280;7866;52.280;9.500;2022-11-20T01:00:34;100017.31;;;-2.77;91.01
15529;BME280;7866;52.280;9.500;2022-11-20T01:05:36;100017.25;;;-2.75;90.89
15529;BME280;7866;52.280;9.500;2022-11-20T01:10:37;100020.50;;;-2.86;91.07
15529;BME280;7866;52.280;9.500;2022-11-20T01:15:41;100011.16;;;-2.61;92.13
15529;BME280;7866;52.280;9.500;2022-11-20T01:20:42;100007.06;;;-2.51;91.73
15529;BME280;7866;52.280;9.500;2022-11-20T01:25:44;100010.81;;;-2.55;91.79
15529;BME280;7866;52.280;9.500;2022-11-20T01:30:47;100008.25;;;-2.57;91.89
15529;BME280;7866;52.280;9.500;2022-11-20T01:35:49;100002.75;;;-2.66;91.51
15529;BME280;7866;52.280;9.500;2022-11-20T01:40:54;99994.50;;;-2.75;91.10
15529;BME280;7866;52.280;9.500;2022-11-20T01:46:12;99996.84;;;-2.70;91.53
15529;BME280;7866;52.280;9.500;2022-11-20T01:51:19;99980.63;;;-2.77;91.72
15529;BME280;7866;52.280;9.500;2022-11-20T01:56:22;99981.59;;;-2.78;91.35
15529;BME280;7866;52.280;9.500;2022-11-20T02:01:26;99976.34;;;-2.78;91.24
15529;BME280;7866;52.280;9.500;2022-11-20T02:06:29;99978.59;;;-2.86;91.83
15529;BME280;7866;52.280;9.500;2022-11-20T02:11:32;99974.84;;;-2.82;91.22
15529;BME280;7866;52.280;9.500;2022-11-20T02:16:36;99966.81;;;-2.79;91.33
15529;BME280;7866;52.280;9.500;2022-11-20T02:21:41;99969.22;;;-2.76;91.51
15529;BME280;7866;52.280;9.500;2022-11-20T02:26:50;99965.41;;;-2.70;91.76
15529;BME280;7866;52.280;9.500;2022-11-20T02:31:54;99949.56;;;-2.68;91.23
15529;BME280;7866;52.280;9.500;2022-11-20T02:36:57;99947.34;;;-2.75;91.56
15529;BME280;7866;52.280;9.500;2022-11-20T02:42:01;99950.03;;;-2.76;91.06
15529;BME280;7866;52.280;9.500;2022-11-20T02:47:03;99941.63;;;-2.81;91.11
15529;BME280;7866;52.280;9.500;2022-11-20T02:52:05;99942.25;;;-2.92;91.34
15529;BME280;7866;52.280;9.500;2022-11-20T02:57:08;99941.53;;;-2.94;91.37
15529;BME280;7866;52.280;9.500;2022-11-20T03:02:09;99940.41;;;-2.90;91.17
15529;BME280;7866;52.280;9.500;2022-11-20T03:07:11;99937.97;;;-2.93;91.38
15529;BME280;7866;52.280;9.500;2022-11-20T03:12:14;99934.63;;;-2.95;91.18
15529;BME280;7866;52.280;9.500;2022-11-20T03:17:16;99924.13;;;-2.95;91.30
15529;BME280;7866;52.280;9.500;2022-11-20T03:22:17;99926.84;;;-2.97;91.42
15529;BME280;7866;52.280;9.500;2022-11-20T03:27:20;99923.84;;;-3.05;91.12
15529;BME280;7866;52.280;9.500;2022-11-20T03:32:22;99934.78;;;-2.98;91.28
15529;BME280;7866;52.280;9.500;2022-11-20T03:37:24;99929.81;;;-2.88;91.32
15529;BME280;7866;52.280;9.500;2022-11-20T03:42:27;99927.97;;;-2.86;91.17
15529;BME280;7866;52.280;9.500;2022-11-20T03:47:47;99924.88;;;-2.93;90.75
15529;BME280;7866;52.280;9.500;2022-11-20T03:52:49;99917.00;;;-2.93;90.83
15529;BME280;7866;52.280;9.500;2022-11-20T03:57:52;99916.63;;;-3.01;90.82
15529;BME280;7866;52.280;9.500;2022-11-20T04:02:53;99911.03;;;-3.09;90.78
15529;BME280;7866;52.280;9.500;2022-11-20T04:07:55;99895.41;;;-3.11;91.07
15529;BME280;7866;52.280;9.500;2022-11-20T04:12:58;99906.16;;;-3.01;90.51
15529;BME280;7866;52.280;9.500;2022-11-20T04:17:59;99898.00;;;-2.97;90.86
15529;BME280;7866;52.280;9.500;2022-11-20T04:23:01;99895.69;;;-3.01;90.56
15529;BME280;7866;52.280;9.500;2022-11-20T04:28:04;99901.56;;;-2.98;90.38
15529;BME280;7866;52.280;9.500;2022-11-20T04:33:06;99894.66;;;-2.99;90.76
15529;BME280;7866;52.280;9.500;2022-11-20T04:38:07;99891.84;;;-2.95;90.46
15529;BME280;7866;52.280;9.500;2022-11-20T04:43:10;99881.66;;;-2.86;91.05
15529;BME280;7866;52.280;9.500;2022-11-20T04:48:12;99886.69;;;-3.11;90.91
15529;BME280;7866;52.280;9.500;2022-11-20T04:53:14;99893.06;;;-3.01;91.25
15529;BME280;7866;52.280;9.500;2022-11-20T04:58:17;99887.25;;;-2.92;91.44
15529;BME280;7866;52.280;9.500;2022-11-20T05:03:18;99883.31;;;-2.85;91.35
15529;BME280;7866;52.280;9.500;2022-11-20T05:08:20;99875.81;;;-2.77;91.58
15529;BME280;7866;52.280;9.500;2022-11-20T05:13:23;99876.75;;;-2.78;91.36
15529;BME280;7866;52.280;9.500;2022-11-20T05:18:25;99873.38;;;-2.65;91.50
15529;BME280;7866;52.280;9.500;2022-11-20T05:23:27;99870.41;;;-2.74;91.29
15529;BME280;7866;52.280;9.500;2022-11-20T05:28:32;99884.03;;;-2.68;91.00
15529;BME280;7866;52.280;9.500;2022-11-20T05:33:34;99873.50;;;-2.81;91.57
15529;BME280;7866;52.280;9.500;2022-11-20T05:38:36;99879.94;;;-2.73;91.18
15529;BME280;7866;52.280;9.500;2022-11-20T05:43:40;99877.84;;;-2.67;90.62
15529;BME280;7866;52.280;9.500;2022-11-20T05:48:43;99888.56;;;-2.85;90.79
15529;BME280;7866;52.280;9.500;2022-11-20T05:53:45;99883.31;;;-2.85;91.04
15529;BME280;7866;52.280;9.500;2022-11-20T05:58:49;99887.44;;;-2.81;91.13
15529;BME280;7866;52.280;9.500;2022-11-20T06:03:51;99878.25;;;-2.74;91.01
15529;BME280;7866;52.280;9.500;2022-11-20T06:08:52;99880.47;;;-2.53;91.29
15529;BME280;7866;52.280;9.500;2022-11-20T06:13:56;99880.81;;;-2.45;90.78
15529;BME280;7866;52.280;9.500;2022-11-20T06:18:57;99862.66;;;-2.48;90.16
15529;BME280;7866;52.280;9.500;2022-11-20T06:23:59;99855.06;;;-2.38;91.19
15529;BME280;7866;52.280;9.500;2022-11-20T06:29:02;99853.09;;;-2.49;90.72
15529;BME280;7866;52.280;9.500;2022-11-20T06:34:04;99856.63;;;-2.36;90.98
15529;BME280;7866;52.280;9.500;2022-11-20T06:39:06;99847.72;;;-2.33;90.84
15529;BME280;7866;52.280;9.500;2022-11-20T06:44:09;99846.69;;;-2.31;90.52
15529;BME280;7866;52.280;9.500;2022-11-20T06:49:11;99842.09;;;-1.75;91.28
15529;BME280;7866;52.280;9.500;2022-11-20T06:54:13;99833.59;;;-1.40;90.33
15529;BME280;7866;52.280;9.500;2022-11-20T06:59:16;99833.59;;;-1.14;88.71
15529;BME280;7866;52.280;9.500;2022-11-20T07:04:17;99828.63;;;-1.06;88.14
15529;BME280;7866;52.280;9.500;2022-11-20T07:09:19;99822.50;;;-0.94;86.15
15529;BME280;7866;52.280;9.500;2022-11-20T07:14:22;99818.72;;;-0.90;85.74
15529;BME280;7866;52.280;9.500;2022-11-20T07:19:24;99817.97;;;-0.79;84.03
15529;BME280;7866;52.280;9.500;2022-11-20T07:24:25;99820.25;;;-0.75;82.62
15529;BME280;7866;52.280;9.500;2022-11-20T07:29:28;99820.06;;;-0.60;82.55
15529;BME280;7866;52.280;9.500;2022-11-20T07:34:30;99823.13;;;-0.54;80.38
15529;BME280;7866;52.280;9.500;2022-11-20T07:39:32;99839.19;;;-0.45;78.92
15529;BME280;7866;52.280;9.500;2022-11-20T07:44:35;99845.50;;;-0.85;80.87
15529;BME280;7866;52.280;9.500;2022-11-20T07:49:37;99846.63;;;-1.38;84.37
15529;BME280;7866;52.280;9.500;2022-11-20T07:54:38;99859.03;;;-1.28;85.34
15529;BME280;7866;52.280;9.500;2022-11-20T07:59:41;99863.84;;;-1.21;85.51
15529;BME280;7866;52.280;9.500;2022-11-20T08:04:43;99852.41;;;-1.08;86.49
15529;BME280;7866;52.280;9.500;2022-11-20T08:09:44;99852.13;;;-0.92;86.39
15529;BME280;7866;52.280;9.500;2022-11-20T08:14:47;99859.41;;;-1.08;85.89
15529;BME280;7866;52.280;9.500;2022-11-20T08:19:49;99856.88;;;-0.97;87.01
15529;BME280;7866;52.280;9.500;2022-11-20T08:24:51;99861.81;;;-0.92;87.22
15529;BME280;7866;52.280;9.500;2022-11-20T08:29:54;99866.53;;;-0.85;86.49
15529;BME280;7866;52.280;9.500;2022-11-20T08:34:55;99858.53;;;-0.70;86.76
15529;BME280;7866;52.280;9.500;2022-11-20T08:39:57;99857.22;;;-0.65;86.69
15529;BME280;7866;52.280;9.500;2022-11-20T08:45:00;99861.44;;;-0.62;87.60
15529;BME280;7866;52.280;9.500;2022-11-20T08:50:02;99847.13;;;-0.34;86.90
15529;BME280;7866;52.280;9.500;2022-11-20T08:55:04;99844.28;;;-0.31;84.81
15529;BME280;7866;52.280;9.500;2022-11-20T09:00:10;99842.56;;;-0.19;82.99
15529;BME280;7866;52.280;9.500;2022-11-20T09:05:12;99842.56;;;-0.08;81.32
15529;BME280;7866;52.280;9.500;2022-11-20T09:10:14;99845.94;;;-0.06;78.36
15529;BME280;7866;52.280;9.500;2022-11-20T09:15:18;99838.53;;;-0.01;76.42
15529;BME280;7866;52.280;9.500;2022-11-20T09:20:20;99846.22;;;0.02;77.83
15529;BME280;7866;52.280;9.500;2022-11-20T09:25:21;99852.50;;;0.12;77.90
15529;BME280;7866;52.280;9.500;2022-11-20T09:30:25;99823.94;;;-0.05;77.19
15529;BME280;7866;52.280;9.500;2022-11-20T09:35:26;99808.72;;;-0.13;76.78
15529;BME280;7866;52.280;9.500;2022-11-20T09:40:29;99818.25;;;0.12;76.80
15529;BME280;7866;52.280;9.500;2022-11-20T09:45:41;99814.22;;;0.31;75.48
15529;BME280;7866;52.280;9.500;2022-11-20T09:50:49;99815.91;;;0.43;72.61
15529;BME280;7866;52.280;9.500;2022-11-20T09:55:54;99828.13;;;0.55;72.08
15529;BME280;7866;52.280;9.500;2022-11-20T10:01:10;99846.72;;;0.65;72.72
15529;BME280;7866;52.280;9.500;2022-11-20T10:06:17;99846.63;;;0.89;73.89
15529;BME280;7866;52.280;9.500;2022-11-20T10:11:26;99861.50;;;1.12;74.44
15529;BME280;7866;52.280;9.500;2022-11-20T10:16:36;99862.69;;;1.08;74.50
15529;BME280;7866;52.280;9.500;2022-11-20T10:21:55;99852.84;;;1.21;74.67
15529;BME280;7866;52.280;9.500;2022-11-20T10:27:08;99843.38;;;1.19;74.88
15529;BME280;7866;52.280;9.500;2022-11-20T10:32:20;99841.94;;;1.26;72.45
15529;BME280;7866;52.280;9.500;2022-11-20T10:37:26;99837.72;;;1.35;73.83
15529;BME280;7866;52.280;9.500;2022-11-20T10:42:33;99831.00;;;1.31;73.78
15529;BME280;7866;52.280;9.500;2022-11-20T10:47:38;99830.53;;;1.26;73.76
15529;BME280;7866;52.280;9.500;2022-11-20T10:52:49;99815.41;;;1.39;73.83
15529;BME280;7866;52.280;9.500;2022-11-20T10:58:00;99810.63;;;1.44;74.04
15529;BME280;7866;52.280;9.500;2022-11-20T11:03:20;99797.25;;;1.57;74.96
15529;BME280;7866;52.280;9.500;2022-11-20T11:08:26;99789.00;;;1.50;75.08
15529;BME280;7866;52.280;9.500;2022-11-20T11:13:30;99792.59;;;1.49;75.28
15529;BME280;7866;52.280;9.500;2022-11-20T11:18:34;99772.72;;;1.34;74.86
15529;BME280;7866;52.280;9.500;2022-11-20T11:23:38;99783.22;;;1.56;74.99
15529;BME280;7866;52.280;9.500;2022-11-20T11:28:40;99771.13;;;1.54;75.57
15529;BME280;7866;52.280;9.500;2022-11-20T11:33:43;99768.19;;;1.68;74.53
15529;BME280;7866;52.280;9.500;2022-11-20T11:38:45;99773.41;;;1.79;74.33
15529;BME280;7866;52.280;9.500;2022-11-20T11:43:51;99765.16;;;1.72;75.37
15529;BME280;7866;52.280;9.500;2022-11-20T11:49:16;99770.66;;;2.02;74.97
15529;BME280;7866;52.280;9.500;2022-11-20T11:54:22;99758.03;;;2.05;74.34
15529;BME280;7866;52.280;9.500;2022-11-20T11:59:27;99763.28;;;2.26;75.38
15529;BME280;7866;52.280;9.500;2022-11-20T12:04:42;99754.34;;;2.69;75.05
15529;BME280;7866;52.280;9.500;2022-11-20T12:09:49;99749.84;;;2.60;74.05
15529;BME280;7866;52.280;9.500;2022-11-20T12:14:54;99752.53;;;2.69;74.33
15529;BME280;7866;52.280;9.500;2022-11-20T12:19:58;99733.00;;;2.91;73.00
15529;BME280;7866;52.280;9.500;2022-11-20T12:25:04;99727.56;;;2.93;73.07
15529;BME280;7866;52.280;9.500;2022-11-20T12:30:09;99726.00;;;2.81;72.51
15529;BME280;7866;52.280;9.500;2022-11-20T12:35:28;99730.41;;;2.70;73.46
15529;BME280;7866;52.280;9.500;2022-11-20T12:40:38;99734.38;;;2.25;73.49
15529;BME280;7866;52.280;9.500;2022-11-20T12:45:59;99730.56;;;2.17;74.01
15529;BME280;7866;52.280;9.500;2022-11-20T12:51:18;99722.28;;;2.01;75.03
15529;BME280;7866;52.280;9.500;2022-11-20T12:56:33;99727.97;;;2.27;74.87
15529;BME280;7866;52.280;9.500;2022-11-20T13:01:43;99720.72;;;2.50;74.75
15529;BME280;7866;52.280;9.500;2022-11-20T13:06:51;99726.00;;;2.50;74.38
15529;BME280;7866;52.280;9.500;2022-11-20T13:12:01;99725.09;;;2.61;75.15
15529;BME280;7866;52.280;9.500;2022-11-20T13:17:11;99719.25;;;2.67;74.51
15529;BME280;7866;52.280;9.500;2022-11-20T13:22:24;99705.28;;;2.45;74.84
15529;BME280;7866;52.280;9.500;2022-11-20T13:27:26;99705.94;;;2.38;74.31
15529;BME280;7866;52.280;9.500;2022-11-20T13:32:31;99721.50;;;2.10;75.09
15529;BME280;7866;52.280;9.500;2022-11-20T13:37:36;99710.03;;;2.21;76.26
15529;BME280;7866;52.280;9.500;2022-11-20T13:42:40;99713.91;;;2.17;75.38
15529;BME280;7866;52.280;9.500;2022-11-20T13:47:47;99723.09;;;2.22;76.64
15529;BME280;7866;52.280;9.500;2022-11-20T13:52:55;99714.66;;;2.29;76.07
15529;BME280;7866;52.280;9.500;2022-11-20T13:58:07;99714.84;;;2.37;75.37
15529;BME280;7866;52.280;9.500;2022-11-20T14:03:18;99703.53;;;2.35;75.15
15529;BME280;7866;52.280;9.500;2022-11-20T14:08:27;99702.84;;;2.33;75.80
15529;BME280;7866;52.280;9.500;2022-11-20T14:13:32;99695.69;;;2.44;75.96
15529;BME280;7866;52.280;9.500;2022-11-20T14:18:34;99691.75;;;2.39;75.56
15529;BME280;7866;52.280;9.500;2022-11-20T14:23:37;99678.66;;;2.37;76.09
15529;BME280;7866;52.280;9.500;2022-11-20T14:28:39;99672.47;;;2.17;76.30
15529;BME280;7866;52.280;9.500;2022-11-20T14:33:41;99684.59;;;1.99;77.25
15529;BME280;7866;52.280;9.500;2022-11-20T14:38:44;99679.34;;;1.78;79.01
15529;BME280;7866;52.280;9.500;2022-11-20T14:43:47;99667.31;;;1.64;79.72
15529;BME280;7866;52.280;9.500;2022-11-20T14:48:54;99676.31;;;1.41;80.74
15529;BME280;7866;52.280;9.500;2022-11-20T14:54:08;99659.34;;;1.22;81.87
15529;BME280;7866;52.280;9.500;2022-11-20T14:59:10;99662.50;;;1.16;82.23
15529;BME280;7866;52.280;9.500;2022-11-20T15:04:11;99650.66;;;1.11;82.89
15529;BME280;7866;52.280;9.500;2022-11-20T15:09:15;99651.09;;;0.84;83.05
15529;BME280;7866;52.280;9.500;2022-11-20T15:14:17;99640.69;;;0.82;83.77
15529;BME280;7866;52.280;9.500;2022-11-20T15:19:20;99641.06;;;0.78;84.26
15529;BME280;7866;52.280;9.500;2022-11-20T15:24:24;99642.66;;;0.58;84.98
15529;BME280;7866;52.280;9.500;2022-11-20T15:29:25;99645.44;;;0.45;85.62
15529;BME280;7866;52.280;9.500;2022-11-20T15:34:27;99625.91;;;0.47;85.16
15529;BME280;7866;52.280;9.500;2022-11-20T15:39:30;99627.31;;;0.52;86.25
15529;BME280;7866;52.280;9.500;2022-11-20T15:44:32;99624.00;;;0.49;86.03
15529;BME280;7866;52.280;9.500;2022-11-20T15:49:35;99613.09;;;0.43;86.75
15529;BME280;7866;52.280;9.500;2022-11-20T15:54:38;99605.69;;;0.37;85.97
15529;BME280;7866;52.280;9.500;2022-11-20T15:59:39;99600.16;;;0.40;86.30
15529;BME280;7866;52.280;9.500;2022-11-20T16:04:42;99590.97;;;0.34;86.86
15529;BME280;7866;52.280;9.500;2022-11-20T16:09:45;99576.38;;;0.30;86.84
15529;BME280;7866;52.280;9.500;2022-11-20T16:14:46;99582.94;;;0.36;87.33
15529;BME280;7866;52.280;9.500;2022-11-20T16:20:09;99574.47;;;0.32;87.17
15529;BME280;7866;52.280;9.500;2022-11-20T16:25:12;99559.38;;;0.23;86.41
15529;BME280;7866;52.280;9.500;2022-11-20T16:30:14;99559.53;;;0.10;86.92
15529;BME280;7866;52.280;9.500;2022-11-20T16:35:16;99549.25;;;0.07;86.87
15529;BME280;7866;52.280;9.500;2022-11-20T16:40:19;99539.91;;;0.14;87.16
15529;BME280;7866;52.280;9.500;2022-11-20T16:45:21;99550.78;;;0.21;87.65
15529;BME280;7866;52.280;9.500;2022-11-20T16:50:22;99545.38;;;0.22;87.06
15529;BME280;7866;52.280;9.500;2022-11-20T16:55:25;99538.91;;;0.27;87.13
15529;BME280;7866;52.280;9.500;2022-11-20T17:00:27;99540.84;;;0.24;87.42
15529;BME280;7866;52.280;9.500;2022-11-20T17:05:29;99536.81;;;0.09;86.21
15529;BME280;7866;52.280;9.500;2022-11-20T17:10:32;99528.19;;;0.07;87.71
15529;BME280;7866;52.280;9.500;2022-11-20T17:15:33;99532.28;;;0.00;87.00
15529;BME280;7866;52.280;9.500;2022-11-20T17:20:35;99519.34;;;-0.03;86.48
15529;BME280;7866;52.280;9.500;2022-11-20T17:25:38;99512.16;;;-0.12;87.26
15529;BME280;7866;52.280;9.500;2022-11-20T17:30:40;99517.19;;;-0.09;87.48
15529;BME280;7866;52.280;9.500;2022-11-20T17:35:41;99505.69;;;0.03;87.40
15529;BME280;7866;52.280;9.500;2022-11-20T17:40:44;99500.19;;;0.06;88.01
15529;BME280;7866;52.280;9.500;2022-11-20T17:45:46;99497.66;;;0.16;87.16
15529;BME280;7866;52.280;9.500;2022-11-20T17:50:48;99487.00;;;0.17;86.94
15529;BME280;7866;52.280;9.500;2022-11-20T17:55:55;99484.25;;;0.19;86.78
15529;BME280;7866;52.280;9.500;2022-11-20T18:01:15;99473.09;;;0.27;87.66
15529;BME280;7866;52.280;9.500;2022-11-20T18:06:18;99457.81;;;0.20;86.34
15529;BME280;7866;52.280;9.500;2022-11-20T18:11:23;99463.31;;;0.17;86.28
15529;BME280;7866;52.280;9.500;2022-11-20T18:16:27;99458.41;;;0.24;86.46
15529;BME280;7866;52.280;9.500;2022-11-20T18:21:29;99453.59;;;0.29;87.74
15529;BME280;7866;52.280;9.500;2022-11-20T18:26:33;99462.34;;;0.18;87.07
15529;BME280;7866;52.280;9.500;2022-11-20T18:31:35;99456.22;;;0.29;87.38
15529;BME280;7866;52.280;9.500;2022-11-20T18:36:37;99459.53;;;0.31;87.72
15529;BME280;7866;52.280;9.500;2022-11-20T18:41:41;99458.66;;;0.42;86.63
15529;BME280;7866;52.280;9.500;2022-11-20T18:47:00;99435.78;;;0.42;87.65
15529;BME280;7866;52.280;9.500;2022-11-20T18:52:02;99421.03;;;0.51;86.79
15529;BME280;7866;52.280;9.500;2022-11-20T18:57:05;99412.72;;;0.56;87.60
15529;BME280;7866;52.280;9.500;2022-11-20T19:02:10;99410.50;;;0.51;86.80
15529;BME280;7866;52.280;9.500;2022-11-20T19:07:13;99390.97;;;0.54;87.33
15529;BME280;7866;52.280;9.500;2022-11-20T19:12:16;99390.19;;;0.63;87.09
15529;BME280;7866;52.280;9.500;2022-11-20T19:17:18;99383.66;;;0.57;87.34
15529;BME280;7866;52.280;9.500;2022-11-20T19:22:20;99378.19;;;0.49;87.07
15529;BME280;7866;52.280;9.500;2022-11-20T19:27:23;99380.75;;;0.60;87.18
15529;BME280;7866;52.280;9.500;2022-11-20T19:32:24;99388.53;;;0.62;86.76
15529;BME280;7866;52.280;9.500;2022-11-20T19:37:26;99383.31;;;0.71;85.95
15529;BME280;7866;52.280;9.500;2022-11-20T19:42:29;99382.34;;;0.72;86.96
15529;BME280;7866;52.280;9.500;2022-11-20T19:47:31;99375.09;;;0.65;86.81
15529;BME280;7866;52.280;9.500;2022-11-20T19:52:32;99358.75;;;0.71;86.54
15529;BME280;7866;52.280;9.500;2022-11-20T19:57:35;99353.56;;;0.81;86.28
15529;BME280;7866;52.280;9.500;2022-11-20T20:02:37;99356.06;;;0.61;86.51
15529;BME280;7866;52.280;9.500;2022-11-20T20:07:39;99345.97;;;0.66;85.86
15529;BME280;7866;52.280;9.500;2022-11-20T20:12:42;99355.53;;;0.67;86.18
15529;BME280;7866;52.280;9.500;2022-11-20T20:17:43;99336.84;;;0.70;86.52
15529;BME280;7866;52.280;9.500;2022-11-20T20:22:45;99320.78;;;0.73;86.07
15529;BME280;7866;52.280;9.500;2022-11-20T20:27:48;99322.41;;;0.65;86.26
15529;BME280;7866;52.280;9.500;2022-11-20T20:32:50;99314.09;;;0.69;85.97
15529;BME280;7866;52.280;9.500;2022-11-20T20:37:51;99310.94;;;0.76;85.66
15529;BME280;7866;52.280;9.500;2022-11-20T20:42:54;99311.91;;;0.74;84.96
15529;BME280;7866;52.280;9.500;2022-11-20T20:47:56;99307.47;;;0.75;85.63
15529;BME280;7866;52.280;9.500;2022-11-20T20:52:58;99303.56;;;0.69;84.61
15529;BME280;7866;52.280;9.500;2022-11-20T20:58:01;99291.78;;;0.73;84.70
15529;BME280;7866;52.280;9.500;2022-11-20T21:03:02;99287.50;;;0.72;84.26
15529;BME280;7866;52.280;9.500;2022-11-20T21:08:04;99283.16;;;0.71;84.40
15529;BME280;7866;52.280;9.500;2022-11-20T21:13:26;99273.34;;;0.73;84.06
15529;BME280;7866;52.280;9.500;2022-11-20T21:18:27;99267.94;;;0.75;84.20
15529;BME280;7866;52.280;9.500;2022-11-20T21:23:29;99265.53;;;0.62;82.94
15529;BME280;7866;52.280;9.500;2022-11-20T21:28:33;99258.03;;;0.58;83.24
15529;BME280;7866;52.280;9.500;2022-11-20T21:33:37;99252.66;;;0.69;83.38
15529;BME280;7866;52.280;9.500;2022-11-20T21:38:39;99246.84;;;0.65;83.21
15529;BME280;7866;52.280;9.500;2022-11-20T21:43:42;99233.66;;;0.65;82.78
15529;BME280;7866;52.280;9.500;2022-11-20T21:48:45;99220.75;;;0.62;83.05
15529;BME280;7866;52.280;9.500;2022-11-20T21:53:48;99227.69;;;0.63;83.56
15529;BME280;7866;52.280;9.500;2022-11-20T21:58:52;99224.19;;;0.53;83.22
15529;BME280;7866;52.280;9.500;2022-11-20T22:03:56;99220.19;;;0.59;83.49
15529;BME280;7866;52.280;9.500;2022-11-20T22:08:58;99214.91;;;0.59;83.58
15529;BME280;7866;52.280;9.500;2022-11-20T22:14:01;99207.31;;;0.65;83.06
15529;BME280;7866;52.280;9.500;2022-11-20T22:19:22;99206.72;;;0.52;83.34
15529;BME280;7866;52.280;9.500;2022-11-20T22:24:24;99195.31;;;0.52;83.74
15529;BME280;7866;52.280;9.500;2022-11-20T22:29:27;99198.69;;;0.63;83.69
15529;BME280;7866;52.280;9.500;2022-11-20T22:34:29;99189.53;;;0.58;83.79
15529;BME280;7866;52.280;9.500;2022-11-20T22:39:31;99194.78;;;0.48;83.96
15529;BME280;7866;52.280;9.500;2022-11-20T22:44:34;99194.78;;;0.48;84.61
15529;BME280;7866;52.280;9.500;2022-11-20T22:49:36;99194.41;;;0.62;84.84
15529;BME280;7866;52.280;9.500;2022-11-20T22:54:37;99211.59;;;0.57;84.53
15529;BME280;7866;52.280;9.500;2022-11-20T22:59:40;99216.44;;;0.61;85.23
15529;BME280;7866;52.280;9.500;2022-11-20T23:04:42;99202.56;;;0.59;85.36
15529;BME280;7866;52.280;9.500;2022-11-20T23:09:44;99211.75;;;0.65;84.93
15529;BME280;7866;52.280;9.500;2022-11-20T23:14:48;99212.00;;;0.52;85.36
15529;BME280;7866;52.280;9.500;2022-11-20T23:19:49;99207.25;;;0.46;85.60
15529;BME280;7866;52.280;9.500;2022-11-20T23:24:51;99207.81;;;0.49;85.93
15529;BME280;7866;52.280;9.500;2022-11-20T23:29:54;99214.88;;;0.49;87.15
15529;BME280;7866;52.280;9.500;2022-11-20T23:34:58;99226.66;;;0.45;87.57
15529;BME280;7866;52.280;9.500;2022-11-20T23:39:59;99229.19;;;0.56;87.74
15529;BME280;7866;52.280;9.500;2022-11-20T23:45:03;99219.75;;;0.54;87.13
15529;BME280;7866;52.280;9.500;2022-11-20T23:50:05;99205.59;;;0.45;88.06
15529;BME280;7866;52.280;9.500;2022-11-20T23:55:07;99215.06;;;0.57;88.14
